createdAt,value
2017-11-07T00:00:16.155Z,0
2017-11-07T00:01:26.136Z,0
2017-11-07T00:02:36.102Z,0
2017-11-07T00:03:46.061Z,0
2017-11-07T00:04:56.036Z,0
2017-11-07T00:06:06.006Z,0
2017-11-07T00:07:16.307Z,0
2017-11-07T00:08:26.269Z,0
2017-11-07T00:09:36.808Z,0
2017-11-07T00:10:46.811Z,0
2017-11-07T00:11:57.098Z,0
2017-11-07T00:13:07.397Z,0
2017-11-07T00:14:17.041Z,0
2017-11-07T00:15:27.345Z,0
2017-11-07T00:16:37.634Z,0
2017-11-07T00:17:47.593Z,0
2017-11-07T00:18:57.896Z,0
2017-11-07T00:20:08.199Z,0
2017-11-07T00:21:18.489Z,0
2017-11-07T00:22:28.785Z,0
2017-11-07T00:23:39.084Z,0
2017-11-07T00:24:49.054Z,0
2017-11-07T00:25:59.344Z,0
2017-11-07T00:27:08.978Z,0
2017-11-07T00:28:19.270Z,0
2017-11-07T00:29:29.575Z,0
2017-11-07T00:30:39.586Z,0
2017-11-07T00:31:49.235Z,0
2017-11-07T00:32:59.529Z,0
2017-11-07T00:34:09.813Z,0
2017-11-07T00:35:20.122Z,0
2017-11-07T00:36:30.409Z,0
2017-11-07T00:37:40.698Z,0
2017-11-07T00:38:50.986Z,0
2017-11-07T00:40:01.282Z,0
2017-11-07T00:41:11.586Z,0
2017-11-07T00:42:21.552Z,0
2017-11-07T00:43:31.857Z,0
2017-11-07T00:44:42.143Z,0
2017-11-07T00:45:52.435Z,0
2017-11-07T00:47:02.708Z,0
2017-11-07T00:48:12.353Z,0
2017-11-07T00:49:22.316Z,0
2017-11-07T00:50:32.275Z,0
2017-11-07T00:51:42.560Z,0
2017-11-07T00:52:52.528Z,0
2017-11-07T00:54:02.820Z,0
2017-11-07T00:55:12.791Z,0
2017-11-07T00:56:23.080Z,0
2017-11-07T00:57:33.041Z,0
2017-11-07T00:58:43.324Z,0
2017-11-07T00:59:53.321Z,0
2017-11-07T01:01:03.294Z,0
2017-11-07T01:02:13.581Z,0
2017-11-07T01:03:23.539Z,0
2017-11-07T01:04:33.826Z,0
2017-11-07T01:05:44.124Z,0
2017-11-07T01:06:54.083Z,0
2017-11-07T01:08:04.424Z,0
2017-11-07T01:09:14.708Z,0
2017-11-07T01:10:24.674Z,0
2017-11-07T01:11:34.964Z,0
2017-11-07T01:12:45.270Z,0
2017-11-07T01:13:55.556Z,0
2017-11-07T01:15:05.532Z,0
2017-11-07T01:16:15.170Z,0
2017-11-07T01:17:25.127Z,0
2017-11-07T01:18:34.758Z,0
2017-11-07T01:19:45.089Z,0
2017-11-07T01:20:55.058Z,0
2017-11-07T01:22:05.015Z,0
2017-11-07T01:23:15.318Z,0
2017-11-07T01:24:25.293Z,0
2017-11-07T01:25:35.576Z,0
2017-11-07T01:26:45.531Z,0
2017-11-07T01:27:55.499Z,0
2017-11-07T01:29:05.794Z,0
2017-11-07T01:30:15.750Z,0
2017-11-07T01:31:25.704Z,0
2017-11-07T01:32:36.011Z,0
2017-11-07T01:33:46.299Z,0
2017-11-07T01:34:56.607Z,0
2017-11-07T01:36:06.904Z,0
2017-11-07T01:37:16.863Z,0
2017-11-07T01:38:27.160Z,0
2017-11-07T01:39:37.455Z,0
2017-11-07T01:40:47.421Z,0
2017-11-07T01:41:57.734Z,0
2017-11-07T01:43:08.044Z,0
2017-11-07T01:44:17.689Z,0
2017-11-07T01:45:27.988Z,0
2017-11-07T01:46:37.967Z,0
2017-11-07T01:47:48.262Z,0
2017-11-07T01:48:58.547Z,0
2017-11-07T01:50:08.514Z,0
2017-11-07T01:51:18.806Z,0
2017-11-07T01:52:28.776Z,0
2017-11-07T01:53:39.064Z,0
2017-11-07T01:54:49.044Z,0
2017-11-07T01:55:59.038Z,0
2017-11-07T01:57:09.321Z,0
2017-11-07T01:58:19.628Z,0
2017-11-07T01:59:29.599Z,0
2017-11-07T02:00:39.896Z,0
2017-11-07T02:01:50.182Z,0
2017-11-07T02:03:00.482Z,0
2017-11-07T02:04:10.778Z,0
2017-11-07T02:05:21.070Z,0
2017-11-07T02:06:31.366Z,0
2017-11-07T02:07:41.680Z,0
2017-11-07T02:08:51.973Z,0
2017-11-07T02:10:01.941Z,0
2017-11-07T02:11:12.254Z,0
2017-11-07T02:12:22.541Z,0
2017-11-07T02:13:32.837Z,0
2017-11-07T02:14:43.127Z,0
2017-11-07T02:15:53.411Z,0
2017-11-07T02:17:03.705Z,0
2017-11-07T02:18:14.008Z,0
2017-11-07T02:19:24.290Z,0
2017-11-07T02:20:34.257Z,0
2017-11-07T02:21:44.239Z,0
2017-11-07T02:22:54.524Z,0
2017-11-07T02:24:04.498Z,0
2017-11-07T02:25:14.802Z,0
2017-11-07T02:26:24.756Z,0
2017-11-07T02:27:34.723Z,0
2017-11-07T02:28:44.716Z,0
2017-11-07T02:29:55.011Z,0
2017-11-07T02:31:05.320Z,0
2017-11-07T02:32:15.305Z,0
2017-11-07T02:33:25.263Z,0
2017-11-07T02:34:35.563Z,0
2017-11-07T02:35:45.853Z,0
2017-11-07T02:36:56.168Z,0
2017-11-07T02:38:06.128Z,0
2017-11-07T02:39:16.088Z,0
2017-11-07T02:40:26.391Z,0
2017-11-07T02:41:36.357Z,0
2017-11-07T02:42:46.650Z,0
2017-11-07T02:43:56.943Z,0
2017-11-07T02:45:06.913Z,0
2017-11-07T02:46:16.908Z,0
2017-11-07T02:47:27.222Z,0
2017-11-07T02:48:37.192Z,0
2017-11-07T02:49:47.476Z,0
2017-11-07T02:50:57.787Z,0
2017-11-07T02:52:08.070Z,0
2017-11-07T02:53:18.358Z,0
2017-11-07T02:54:28.323Z,0
2017-11-07T02:55:38.616Z,0
2017-11-07T02:56:48.248Z,0
2017-11-07T02:57:58.563Z,0
2017-11-07T02:59:08.519Z,0
2017-11-07T03:00:18.784Z,0
2017-11-07T03:01:29.081Z,0
2017-11-07T03:02:38.389Z,0
2017-11-07T03:03:48.364Z,0
2017-11-07T03:04:58.665Z,0
2017-11-07T03:06:08.966Z,0
2017-11-07T03:07:18.926Z,0
2017-11-07T03:08:29.235Z,0
2017-11-07T03:09:39.248Z,0
2017-11-07T03:10:49.553Z,0
2017-11-07T03:11:59.835Z,0
2017-11-07T03:13:09.800Z,0
2017-11-07T03:14:20.100Z,0
2017-11-07T03:15:30.058Z,0
2017-11-07T03:16:40.361Z,0
2017-11-07T03:17:50.658Z,0
2017-11-07T03:19:00.616Z,0
2017-11-07T03:20:10.905Z,0
2017-11-07T03:21:21.193Z,0
2017-11-07T03:22:31.485Z,0
2017-11-07T03:23:41.786Z,0
2017-11-07T03:24:51.768Z,0
2017-11-07T03:26:02.071Z,0
2017-11-07T03:27:12.035Z,0
2017-11-07T03:28:22.314Z,0
2017-11-07T03:29:32.620Z,0
2017-11-07T03:30:43.156Z,0
2017-11-07T03:31:53.123Z,0
2017-11-07T03:33:03.428Z,0
2017-11-07T03:34:13.380Z,0
2017-11-07T03:35:23.667Z,0
2017-11-07T03:36:33.946Z,0
2017-11-07T03:37:44.257Z,0
2017-11-07T03:38:54.567Z,0
2017-11-07T03:40:04.876Z,0
2017-11-07T03:41:15.186Z,0
2017-11-07T03:42:25.476Z,0
2017-11-07T03:43:35.436Z,0
2017-11-07T03:44:45.724Z,0
2017-11-07T03:45:56.017Z,0
2017-11-07T03:47:06.305Z,0
2017-11-07T03:48:16.630Z,0
2017-11-07T03:49:26.593Z,0
2017-11-07T03:50:36.886Z,0
2017-11-07T03:51:46.845Z,0
2017-11-07T03:52:57.124Z,0
2017-11-07T03:54:07.414Z,0
2017-11-07T03:55:17.703Z,0
2017-11-07T03:56:27.984Z,0
2017-11-07T03:57:38.272Z,0
2017-11-07T03:58:48.568Z,0
2017-11-07T03:59:58.864Z,0
2017-11-07T04:01:09.159Z,0
2017-11-07T04:02:19.458Z,0
2017-11-07T04:03:29.444Z,0
2017-11-07T04:04:39.744Z,0
2017-11-07T04:05:50.026Z,0
2017-11-07T04:07:00.317Z,0
2017-11-07T04:08:10.632Z,0
2017-11-07T04:09:20.600Z,0
2017-11-07T04:10:30.571Z,0
2017-11-07T04:11:40.865Z,0
2017-11-07T04:12:51.154Z,0
2017-11-07T04:14:01.436Z,0
2017-11-07T04:15:11.735Z,0
2017-11-07T04:16:22.032Z,0
2017-11-07T04:17:31.987Z,0
2017-11-07T04:18:41.946Z,0
2017-11-07T04:19:52.230Z,0
2017-11-07T04:21:02.191Z,0
2017-11-07T04:22:12.157Z,0
2017-11-07T04:23:22.449Z,0
2017-11-07T04:24:31.765Z,0
2017-11-07T04:25:42.061Z,0
2017-11-07T04:26:52.361Z,0
2017-11-07T04:28:02.642Z,0
2017-11-07T04:29:11.953Z,0
2017-11-07T04:30:22.059Z,0
2017-11-07T04:31:32.023Z,0
2017-11-07T04:32:42.327Z,0
2017-11-07T04:33:52.284Z,0
2017-11-07T04:35:02.576Z,0
2017-11-07T04:36:12.864Z,0
2017-11-07T04:37:23.159Z,0
2017-11-07T04:38:33.457Z,0
2017-11-07T04:39:43.743Z,0
2017-11-07T04:40:53.389Z,0
2017-11-07T04:42:03.351Z,0
2017-11-07T04:43:13.644Z,0
2017-11-07T04:44:23.934Z,0
2017-11-07T04:45:34.240Z,0
2017-11-07T04:46:44.535Z,0
2017-11-07T04:47:54.831Z,0
2017-11-07T04:49:05.114Z,0
2017-11-07T04:50:15.408Z,0
2017-11-07T04:51:25.691Z,0
2017-11-07T04:52:35.660Z,0
2017-11-07T04:53:45.933Z,0
2017-11-07T04:54:56.231Z,0
2017-11-07T04:56:06.199Z,0
2017-11-07T04:57:16.182Z,0
2017-11-07T04:58:26.484Z,0
2017-11-07T04:59:36.445Z,0
2017-11-07T05:00:46.730Z,0
2017-11-07T05:01:57.018Z,0
2017-11-07T05:03:06.986Z,0
2017-11-07T05:04:16.943Z,0
2017-11-07T05:05:27.233Z,0
2017-11-07T05:06:37.531Z,0
2017-11-07T05:07:47.812Z,0
2017-11-07T05:08:58.090Z,0
2017-11-07T05:10:08.392Z,0
2017-11-07T05:11:18.683Z,0
2017-11-07T05:12:28.986Z,0
2017-11-07T05:13:38.973Z,0
2017-11-07T05:14:49.287Z,0
2017-11-07T05:15:59.577Z,0
2017-11-07T05:17:09.878Z,0
2017-11-07T05:18:20.183Z,0
2017-11-07T05:19:30.472Z,0
2017-11-07T05:20:40.448Z,0
2017-11-07T05:21:50.086Z,0
2017-11-07T05:23:00.389Z,0
2017-11-07T05:24:10.359Z,0
2017-11-07T05:25:20.328Z,0
2017-11-07T05:26:30.617Z,0
2017-11-07T05:27:40.916Z,0
2017-11-07T05:28:51.204Z,0
2017-11-07T05:30:01.517Z,0
2017-11-07T05:31:11.824Z,0
2017-11-07T05:32:22.103Z,0
2017-11-07T05:33:32.399Z,0
2017-11-07T05:34:42.059Z,0
2017-11-07T05:35:52.375Z,0
2017-11-07T05:37:02.672Z,0
2017-11-07T05:38:13.003Z,0
2017-11-07T05:39:23.321Z,0
2017-11-07T05:40:32.954Z,0
2017-11-07T05:41:43.241Z,0
2017-11-07T05:42:53.211Z,0
2017-11-07T05:44:03.173Z,0
2017-11-07T05:45:13.730Z,0
2017-11-07T05:46:24.016Z,0
2017-11-07T05:47:34.326Z,0
2017-11-07T05:48:44.659Z,0
2017-11-07T05:49:54.950Z,0
2017-11-07T05:51:05.235Z,0
2017-11-07T05:52:15.520Z,0
2017-11-07T05:53:25.808Z,0
2017-11-07T05:54:36.113Z,0
2017-11-07T05:55:46.399Z,0
2017-11-07T05:56:56.683Z,0
2017-11-07T05:58:06.977Z,0
2017-11-07T05:59:17.277Z,0
2017-11-07T06:00:27.242Z,0
2017-11-07T06:01:37.545Z,5
2017-11-07T06:02:47.831Z,5
2017-11-07T06:03:58.120Z,5
2017-11-07T06:05:08.415Z,5
2017-11-07T06:06:18.710Z,5
2017-11-07T06:07:28.994Z,5
2017-11-07T06:08:39.323Z,10
2017-11-07T06:09:49.642Z,10
2017-11-07T06:10:59.602Z,10
2017-11-07T06:12:09.891Z,15
2017-11-07T06:13:20.196Z,15
2017-11-07T06:14:30.715Z,15
2017-11-07T06:15:40.992Z,20
2017-11-07T06:16:51.278Z,20
2017-11-07T06:18:01.593Z,20
2017-11-07T06:19:11.903Z,25
2017-11-07T06:20:22.184Z,25
2017-11-07T06:21:31.822Z,30
2017-11-07T06:22:41.788Z,30
2017-11-07T06:23:52.081Z,35
2017-11-07T06:25:02.058Z,35
2017-11-07T06:26:12.376Z,40
2017-11-07T06:27:22.688Z,40
2017-11-07T06:28:32.982Z,45
2017-11-07T06:29:43.273Z,45
2017-11-07T06:30:53.570Z,50
2017-11-07T06:32:03.852Z,55
2017-11-07T06:33:14.156Z,55
2017-11-07T06:34:24.446Z,60
2017-11-07T06:35:34.409Z,65
2017-11-07T06:36:44.742Z,65
2017-11-07T06:37:54.707Z,70
2017-11-07T06:39:04.997Z,70
2017-11-07T06:40:15.296Z,75
2017-11-07T06:41:25.603Z,80
2017-11-07T06:42:35.569Z,80
2017-11-07T06:43:45.533Z,85
2017-11-07T06:44:55.833Z,85
2017-11-07T06:46:06.123Z,90
2017-11-07T06:47:16.106Z,95
2017-11-07T06:48:26.066Z,95
2017-11-07T06:49:35.706Z,100
2017-11-07T06:50:45.676Z,105
2017-11-07T06:51:55.662Z,105
2017-11-07T06:53:05.644Z,110
2017-11-07T06:54:15.942Z,110
2017-11-07T06:55:26.224Z,115
2017-11-07T06:56:36.508Z,120
2017-11-07T06:57:46.483Z,120
2017-11-07T06:58:56.460Z,125
2017-11-07T07:00:06.761Z,125
2017-11-07T07:01:17.044Z,125
2017-11-07T07:02:27.305Z,130
2017-11-07T07:03:36.911Z,135
2017-11-07T07:04:47.191Z,135
2017-11-07T07:05:57.121Z,135
2017-11-07T07:07:07.356Z,140
2017-11-07T07:08:17.659Z,145
2017-11-07T07:09:27.256Z,145
2017-11-07T07:10:37.195Z,150
2017-11-07T07:11:47.487Z,150
2017-11-07T07:12:57.472Z,155
2017-11-07T07:14:07.451Z,160
2017-11-07T07:15:17.756Z,160
2017-11-07T07:16:28.044Z,165
2017-11-07T07:17:37.687Z,170
2017-11-07T07:18:47.980Z,170
2017-11-07T07:19:58.285Z,170
2017-11-07T07:21:08.269Z,170
2017-11-07T07:22:18.558Z,180
2017-11-07T07:23:28.862Z,180
2017-11-07T07:24:39.196Z,185
2017-11-07T07:25:49.189Z,185
2017-11-07T07:26:59.486Z,185
2017-11-07T07:28:09.769Z,190
2017-11-07T07:29:20.062Z,195
2017-11-07T07:30:30.349Z,200
2017-11-07T07:31:40.650Z,200
2017-11-07T07:32:50.619Z,205
2017-11-07T07:34:00.917Z,200
2017-11-07T07:35:10.876Z,205
2017-11-07T07:36:20.847Z,215
2017-11-07T07:37:30.829Z,230
2017-11-07T07:38:40.814Z,250
2017-11-07T07:39:51.132Z,255
2017-11-07T07:41:01.444Z,255
2017-11-07T07:42:11.803Z,260
2017-11-07T07:43:22.099Z,270
2017-11-07T07:44:32.092Z,270
2017-11-07T07:45:41.783Z,280
2017-11-07T07:46:51.748Z,280
2017-11-07T07:48:02.064Z,290
2017-11-07T07:49:12.359Z,285
2017-11-07T07:50:22.668Z,290
2017-11-07T07:51:32.645Z,305
2017-11-07T07:52:42.956Z,310
2017-11-07T07:53:53.293Z,315
2017-11-07T07:55:03.295Z,330
2017-11-07T07:56:13.653Z,330
2017-11-07T07:57:23.944Z,345
2017-11-07T07:58:34.167Z,360
2017-11-07T07:59:44.678Z,370
2017-11-07T08:00:55.216Z,380
2017-11-07T08:02:05.537Z,395
2017-11-07T08:03:15.840Z,400
2017-11-07T08:04:26.148Z,410
2017-11-07T08:05:36.473Z,420
2017-11-07T08:06:46.157Z,430
2017-11-07T08:07:56.467Z,440
2017-11-07T08:09:06.462Z,450
2017-11-07T08:10:16.798Z,450
2017-11-07T08:11:27.097Z,455
2017-11-07T08:12:37.394Z,465
2017-11-07T08:13:47.702Z,480
2017-11-07T08:14:58.010Z,485
2017-11-07T08:16:08.003Z,490
2017-11-07T08:17:17.663Z,495
2017-11-07T08:18:27.964Z,505
2017-11-07T08:19:37.924Z,520
2017-11-07T08:20:47.946Z,525
2017-11-07T08:21:58.247Z,535
2017-11-07T08:23:08.230Z,545
2017-11-07T08:24:18.248Z,550
2017-11-07T08:25:28.555Z,560
2017-11-07T08:26:38.513Z,585
2017-11-07T08:27:48.831Z,595
2017-11-07T08:28:58.797Z,615
2017-11-07T08:30:09.100Z,620
2017-11-07T08:31:19.409Z,630
2017-11-07T08:32:29.732Z,635
2017-11-07T08:33:40.025Z,645
2017-11-07T08:34:50.347Z,655
2017-11-07T08:36:00.651Z,670
2017-11-07T08:37:10.960Z,685
2017-11-07T08:38:21.255Z,695
2017-11-07T08:39:31.570Z,710
2017-11-07T08:40:41.896Z,735
2017-11-07T08:41:52.193Z,735
2017-11-07T08:43:02.513Z,745
2017-11-07T08:44:12.489Z,760
2017-11-07T08:45:22.803Z,780
2017-11-07T08:46:33.118Z,785
2017-11-07T08:47:43.426Z,795
2017-11-07T08:48:53.404Z,800
2017-11-07T08:50:03.718Z,825
2017-11-07T08:51:14.028Z,845
2017-11-07T08:52:24.013Z,830
2017-11-07T08:53:34.320Z,835
2017-11-07T08:54:44.335Z,845
2017-11-07T08:55:53.985Z,865
2017-11-07T08:57:04.288Z,870
2017-11-07T08:58:14.269Z,885
2017-11-07T08:59:24.255Z,890
2017-11-07T09:00:34.230Z,915
2017-11-07T09:01:44.543Z,925
2017-11-07T09:02:54.205Z,940
2017-11-07T09:04:04.529Z,975
2017-11-07T09:05:14.488Z,965
2017-11-07T09:06:24.485Z,985
2017-11-07T09:07:34.675Z,990
2017-11-07T09:08:44.972Z,1010
2017-11-07T09:09:55.275Z,1025
2017-11-07T09:11:05.579Z,1035
2017-11-07T09:12:15.550Z,1025
2017-11-07T09:13:25.852Z,1040
2017-11-07T09:14:35.857Z,1060
2017-11-07T09:15:45.540Z,1065
2017-11-07T09:16:55.873Z,1060
2017-11-07T09:18:06.216Z,1045
2017-11-07T09:19:16.542Z,1050
2017-11-07T09:20:26.834Z,1095
2017-11-07T09:21:36.815Z,1095
2017-11-07T09:22:46.817Z,1105
2017-11-07T09:23:56.798Z,895
2017-11-07T09:25:07.102Z,1140
2017-11-07T09:26:17.627Z,1120
2017-11-07T09:27:27.941Z,1110
2017-11-07T09:28:38.261Z,1070
2017-11-07T09:29:48.249Z,1055
2017-11-07T09:30:58.571Z,1095
2017-11-07T09:32:08.907Z,1140
2017-11-07T09:33:19.211Z,1110
2017-11-07T09:34:29.181Z,1060
2017-11-07T09:35:39.157Z,1015
2017-11-07T09:36:48.814Z,1030
2017-11-07T09:37:59.134Z,1035
2017-11-07T09:39:09.119Z,1025
2017-11-07T09:40:19.424Z,1040
2017-11-07T09:41:29.728Z,1095
2017-11-07T09:42:40.034Z,1120
2017-11-07T09:43:50.551Z,1090
2017-11-07T09:45:00.524Z,1110
2017-11-07T09:46:10.545Z,1150
2017-11-07T09:47:20.521Z,1200
2017-11-07T09:48:30.855Z,1190
2017-11-07T09:49:41.176Z,1310
2017-11-07T09:50:51.172Z,1450
2017-11-07T09:52:01.478Z,1525
2017-11-07T09:53:11.455Z,1560
2017-11-07T09:54:21.758Z,1550
2017-11-07T09:55:32.069Z,1495
2017-11-07T09:56:42.380Z,1550
2017-11-07T09:57:52.366Z,1675
2017-11-07T09:59:02.350Z,1655
2017-11-07T10:00:12.556Z,1605
2017-11-07T10:01:22.917Z,1610
2017-11-07T10:02:33.228Z,1745
2017-11-07T10:03:43.554Z,1790
2017-11-07T10:04:53.873Z,1725
2017-11-07T10:06:03.837Z,1685
2017-11-07T10:07:13.498Z,1790
2017-11-07T10:08:23.470Z,1770
2017-11-07T10:09:33.032Z,1720
2017-11-07T10:10:43.347Z,1775
2017-11-07T10:11:53.649Z,1825
2017-11-07T10:13:03.644Z,1865
2017-11-07T10:14:13.965Z,1835
2017-11-07T10:15:23.964Z,1825
2017-11-07T10:16:33.617Z,1860
2017-11-07T10:17:43.615Z,1760
2017-11-07T10:18:53.931Z,1760
2017-11-07T10:20:04.257Z,1905
2017-11-07T10:21:14.798Z,1870
2017-11-07T10:22:25.096Z,1970
2017-11-07T10:23:35.078Z,2030
2017-11-07T10:24:45.402Z,1835
2017-11-07T10:25:55.418Z,1845
2017-11-07T10:27:05.745Z,1875
2017-11-07T10:28:16.071Z,1895
2017-11-07T10:29:26.054Z,1895
2017-11-07T10:30:36.364Z,1925
2017-11-07T10:31:46.688Z,1990
2017-11-07T10:32:56.667Z,1900
2017-11-07T10:34:07.109Z,1935
2017-11-07T10:35:16.769Z,1980
2017-11-07T10:36:26.772Z,1685
2017-11-07T10:37:37.357Z,1385
2017-11-07T10:38:47.738Z,1640
2017-11-07T10:39:58.056Z,1710
2017-11-07T10:41:08.417Z,1310
2017-11-07T10:42:18.737Z,1405
2017-11-07T10:43:28.708Z,1300
2017-11-07T10:44:39.063Z,1050
2017-11-07T10:45:49.362Z,735
2017-11-07T10:46:59.766Z,745
2017-11-07T10:48:10.086Z,690
2017-11-07T10:49:20.409Z,725
2017-11-07T10:50:30.426Z,830
2017-11-07T10:51:40.407Z,890
2017-11-07T10:52:50.751Z,855
2017-11-07T10:54:01.059Z,660
2017-11-07T10:55:11.373Z,555
2017-11-07T10:56:21.680Z,505
2017-11-07T10:57:31.944Z,485
2017-11-07T10:58:42.298Z,475
2017-11-07T10:59:52.316Z,465
2017-11-07T11:01:02.676Z,460
2017-11-07T11:02:12.669Z,470
2017-11-07T11:03:22.666Z,455
2017-11-07T11:04:33.002Z,450
2017-11-07T11:05:43.331Z,435
2017-11-07T11:06:53.668Z,430
2017-11-07T11:08:04.005Z,420
2017-11-07T11:09:14.342Z,420
2017-11-07T11:10:24.704Z,425
2017-11-07T11:11:35.033Z,425
2017-11-07T11:12:45.335Z,420
2017-11-07T11:13:55.709Z,410
2017-11-07T11:15:06.264Z,415
2017-11-07T11:16:16.298Z,420
2017-11-07T11:17:26.636Z,430
2017-11-07T11:18:37.189Z,435
2017-11-07T11:19:47.524Z,435
2017-11-07T11:20:57.827Z,435
2017-11-07T11:22:08.144Z,430
2017-11-07T11:23:18.469Z,425
2017-11-07T11:24:28.383Z,420
2017-11-07T11:25:38.752Z,415
2017-11-07T11:26:49.063Z,410
2017-11-07T11:27:59.063Z,405
2017-11-07T11:29:09.694Z,400
2017-11-07T11:30:20.050Z,395
2017-11-07T11:31:30.362Z,385
2017-11-07T11:32:40.350Z,375
2017-11-07T11:33:50.703Z,365
2017-11-07T11:35:01.093Z,360
2017-11-07T11:36:11.123Z,360
2017-11-07T11:37:21.487Z,365
2017-11-07T11:38:32.065Z,365
2017-11-07T11:39:42.397Z,370
2017-11-07T11:40:52.774Z,365
2017-11-07T11:42:03.135Z,365
2017-11-07T11:43:13.109Z,360
2017-11-07T11:44:23.322Z,360
2017-11-07T11:45:33.866Z,360
2017-11-07T11:46:44.194Z,360
2017-11-07T11:47:54.516Z,355
2017-11-07T11:49:04.828Z,360
2017-11-07T11:50:15.341Z,360
2017-11-07T11:51:25.322Z,365
2017-11-07T11:52:35.632Z,370
2017-11-07T11:53:45.637Z,370
2017-11-07T11:54:55.931Z,370
2017-11-07T11:56:06.226Z,370
2017-11-07T11:57:16.523Z,370
2017-11-07T11:58:26.825Z,375
2017-11-07T11:59:36.483Z,375
2017-11-07T12:00:46.497Z,375
2017-11-07T12:01:56.463Z,370
2017-11-07T12:03:06.765Z,370
2017-11-07T12:04:17.064Z,370
2017-11-07T12:05:27.043Z,370
2017-11-07T12:06:37.349Z,385
2017-11-07T12:07:47.660Z,410
2017-11-07T12:08:57.961Z,435
2017-11-07T12:10:08.256Z,465
2017-11-07T12:11:18.235Z,490
2017-11-07T12:12:28.209Z,525
2017-11-07T12:13:38.503Z,555
2017-11-07T12:14:48.482Z,580
2017-11-07T12:15:58.817Z,620
2017-11-07T12:17:09.104Z,630
2017-11-07T12:18:19.409Z,655
2017-11-07T12:19:29.725Z,660
2017-11-07T12:20:39.702Z,665
2017-11-07T12:21:50.011Z,675
2017-11-07T12:22:59.666Z,690
2017-11-07T12:24:09.993Z,695
2017-11-07T12:25:20.355Z,705
2017-11-07T12:26:30.654Z,705
2017-11-07T12:27:41.018Z,695
2017-11-07T12:28:51.342Z,675
2017-11-07T12:30:01.655Z,630
2017-11-07T12:31:11.992Z,595
2017-11-07T12:32:22.300Z,565
2017-11-07T12:33:32.626Z,540
2017-11-07T12:34:42.593Z,525
2017-11-07T12:35:52.915Z,505
2017-11-07T12:37:03.223Z,490
2017-11-07T12:38:13.201Z,480
2017-11-07T12:39:23.530Z,480
2017-11-07T12:40:34.106Z,480
2017-11-07T12:41:44.421Z,470
2017-11-07T12:42:54.810Z,455
2017-11-07T12:44:05.124Z,445
2017-11-07T12:45:15.444Z,440
2017-11-07T12:46:25.784Z,430
2017-11-07T12:47:35.749Z,425
2017-11-07T12:48:45.759Z,425
2017-11-07T12:49:56.073Z,420
2017-11-07T12:51:06.131Z,410
2017-11-07T12:52:16.535Z,395
2017-11-07T12:53:26.833Z,375
2017-11-07T12:54:37.165Z,365
2017-11-07T12:55:46.825Z,355
2017-11-07T12:56:57.158Z,355
2017-11-07T12:58:07.383Z,360
2017-11-07T12:59:17.697Z,360
2017-11-07T13:00:27.666Z,360
2017-11-07T13:01:37.987Z,355
2017-11-07T13:02:48.290Z,345
2017-11-07T13:03:58.592Z,335
2017-11-07T13:05:08.562Z,330
2017-11-07T13:06:18.528Z,325
2017-11-07T13:07:28.511Z,325
2017-11-07T13:08:38.500Z,320
2017-11-07T13:09:48.819Z,310
2017-11-07T13:10:59.121Z,295
2017-11-07T13:12:09.109Z,285
2017-11-07T13:13:19.428Z,265
2017-11-07T13:14:29.736Z,250
2017-11-07T13:15:39.714Z,240
2017-11-07T13:16:49.999Z,230
2017-11-07T13:17:59.986Z,225
2017-11-07T13:19:09.974Z,220
2017-11-07T13:20:19.959Z,220
2017-11-07T13:21:29.626Z,220
2017-11-07T13:22:39.934Z,210
2017-11-07T13:23:50.241Z,210
2017-11-07T13:25:00.792Z,210
2017-11-07T13:26:11.083Z,210
2017-11-07T13:27:20.724Z,205
2017-11-07T13:28:31.042Z,200
2017-11-07T13:29:41.599Z,200
2017-11-07T13:30:51.900Z,195
2017-11-07T13:32:02.224Z,195
2017-11-07T13:33:12.183Z,190
2017-11-07T13:34:22.487Z,190
2017-11-07T13:35:32.791Z,185
2017-11-07T13:36:43.095Z,180
2017-11-07T13:37:53.070Z,180
2017-11-07T13:39:03.033Z,175
2017-11-07T13:40:13.341Z,175
2017-11-07T13:41:23.331Z,175
2017-11-07T13:42:33.311Z,170
2017-11-07T13:43:43.648Z,170
2017-11-07T13:44:53.987Z,170
2017-11-07T13:46:03.974Z,170
2017-11-07T13:47:13.947Z,170
2017-11-07T13:48:24.280Z,170
2017-11-07T13:49:34.595Z,170
2017-11-07T13:50:44.908Z,170
2017-11-07T13:51:55.200Z,170
2017-11-07T13:53:04.845Z,175
2017-11-07T13:54:15.142Z,170
2017-11-07T13:55:25.442Z,170
2017-11-07T13:56:35.775Z,170
2017-11-07T13:57:46.068Z,170
2017-11-07T13:58:56.370Z,165
2017-11-07T14:00:06.683Z,160
2017-11-07T14:01:17.010Z,155
2017-11-07T14:02:27.325Z,150
2017-11-07T14:03:37.642Z,145
2017-11-07T14:04:47.983Z,145
2017-11-07T14:05:58.292Z,140
2017-11-07T14:07:08.602Z,135
2017-11-07T14:08:18.822Z,130
2017-11-07T14:09:29.130Z,125
2017-11-07T14:10:39.433Z,115
2017-11-07T14:11:49.418Z,110
2017-11-07T14:12:59.740Z,105
2017-11-07T14:14:10.057Z,100
2017-11-07T14:15:20.350Z,95
2017-11-07T14:16:30.317Z,90
2017-11-07T14:17:40.871Z,90
2017-11-07T14:18:51.212Z,85
2017-11-07T14:20:01.234Z,85
2017-11-07T14:21:11.237Z,80
2017-11-07T14:22:21.560Z,80
2017-11-07T14:23:31.538Z,75
2017-11-07T14:24:41.841Z,75
2017-11-07T14:25:51.482Z,75
2017-11-07T14:27:01.806Z,75
2017-11-07T14:28:12.107Z,70
2017-11-07T14:29:22.407Z,70
2017-11-07T14:30:32.717Z,65
2017-11-07T14:31:42.694Z,60
2017-11-07T14:32:52.688Z,55
2017-11-07T14:34:02.732Z,55
2017-11-07T14:35:13.055Z,50
2017-11-07T14:36:23.050Z,50
2017-11-07T14:37:33.012Z,50
2017-11-07T14:38:43.306Z,45
2017-11-07T14:39:53.290Z,45
2017-11-07T14:41:02.935Z,45
2017-11-07T14:42:12.915Z,45
2017-11-07T14:43:23.203Z,40
2017-11-07T14:44:33.196Z,40
2017-11-07T14:45:43.506Z,40
2017-11-07T14:46:53.164Z,40
2017-11-07T14:48:03.552Z,35
2017-11-07T14:49:14.104Z,30
2017-11-07T14:50:24.429Z,30
2017-11-07T14:51:34.749Z,30
2017-11-07T14:52:45.040Z,25
2017-11-07T14:53:55.350Z,25
2017-11-07T14:55:05.693Z,25
2017-11-07T14:56:15.997Z,25
2017-11-07T14:57:25.964Z,20
2017-11-07T14:58:36.267Z,20
2017-11-07T14:59:46.556Z,20
2017-11-07T15:00:56.535Z,20
2017-11-07T15:02:06.507Z,15
2017-11-07T15:03:16.153Z,15
2017-11-07T15:04:26.486Z,15
2017-11-07T15:05:36.784Z,15
2017-11-07T15:06:47.090Z,15
2017-11-07T15:07:57.425Z,10
2017-11-07T15:09:07.389Z,10
2017-11-07T15:10:17.700Z,10
2017-11-07T15:11:27.987Z,10
2017-11-07T15:12:38.288Z,10
2017-11-07T15:13:48.575Z,10
2017-11-07T15:14:58.227Z,10
2017-11-07T15:16:08.206Z,10
2017-11-07T15:17:18.506Z,5
2017-11-07T15:18:28.830Z,5
2017-11-07T15:19:39.128Z,5
2017-11-07T15:20:49.118Z,5
2017-11-07T15:21:59.411Z,5
2017-11-07T15:23:09.715Z,5
2017-11-07T15:24:20.020Z,5
2017-11-07T15:25:30.324Z,5
2017-11-07T15:26:39.975Z,0
2017-11-07T15:27:50.272Z,0
2017-11-07T15:29:00.568Z,0
2017-11-07T15:30:10.536Z,0
2017-11-07T15:31:20.853Z,0
2017-11-07T15:32:30.818Z,0
2017-11-07T15:33:41.118Z,0
2017-11-07T15:34:51.444Z,0
2017-11-07T15:36:01.750Z,0
2017-11-07T15:37:12.064Z,0
2017-11-07T15:38:22.038Z,0
2017-11-07T15:39:32.341Z,0
2017-11-07T15:40:42.639Z,0
2017-11-07T15:41:52.953Z,0
2017-11-07T15:43:03.249Z,0
2017-11-07T15:44:12.904Z,0
2017-11-07T15:45:22.576Z,0
2017-11-07T15:46:32.553Z,0
2017-11-07T15:47:42.851Z,0
2017-11-07T15:48:52.825Z,0
2017-11-07T15:50:02.796Z,0
2017-11-07T15:51:13.130Z,0
2017-11-07T15:52:23.437Z,0
2017-11-07T15:53:33.722Z,0
2017-11-07T15:54:44.026Z,0
2017-11-07T15:55:54.323Z,0
2017-11-07T15:57:04.299Z,0
2017-11-07T15:58:14.596Z,0
2017-11-07T15:59:24.235Z,0
2017-11-07T16:00:34.223Z,0
2017-11-07T16:01:44.519Z,0
2017-11-07T16:02:54.800Z,0
2017-11-07T16:04:04.119Z,0
2017-11-07T16:05:14.408Z,0
2017-11-07T16:06:24.397Z,0
2017-11-07T16:07:34.715Z,0
2017-11-07T16:08:45.015Z,0
2017-11-07T16:09:54.989Z,0
2017-11-07T16:11:05.282Z,0
2017-11-07T16:12:15.255Z,0
2017-11-07T16:13:25.566Z,0
2017-11-07T16:14:35.893Z,0
2017-11-07T16:15:46.186Z,0
2017-11-07T16:16:56.485Z,0
2017-11-07T16:18:06.789Z,0
2017-11-07T16:19:16.434Z,0
2017-11-07T16:20:26.740Z,0
2017-11-07T16:21:36.399Z,0
2017-11-07T16:22:46.722Z,0
2017-11-07T16:23:57.005Z,0
2017-11-07T16:25:07.306Z,0
2017-11-07T16:26:17.637Z,0
2017-11-07T16:27:27.952Z,0
2017-11-07T16:28:38.278Z,0
2017-11-07T16:29:48.254Z,0
2017-11-07T16:30:58.225Z,0
2017-11-07T16:32:08.194Z,0
2017-11-07T16:33:18.171Z,0
2017-11-07T16:34:28.458Z,0
2017-11-07T16:35:38.749Z,0
2017-11-07T16:36:49.061Z,0